Time;durP1;ratioP1;P1;durP2;ratioP2;P2;SDS_P1;SDS_P2;PMS_P1;PMS_P2;Temp;Humidity;BMP_temperature;BMP_pressure;BME280_temperature;BME280_humidity;BME280_pressure;Samples;Min_cycle;Max_cycle;Signal;HPM_P1;HPM_P2
2023/08/24 00:01:59;;;;;;;9.02;8.20;;;;;;;24.04;70.88;94783.72;5049902;28;20580;-44
2023/08/24 00:04:25;;;;;;;13.40;9.05;;;;;;;24.01;70.81;94780.78;5050103;28;20256;-43
2023/08/24 00:06:52;;;;;;;13.00;8.38;;;;;;;23.99;71.18;94780.16;5049775;28;20190;-44
2023/08/24 00:09:19;;;;;;;12.32;9.27;;;;;;;23.98;71.34;94783.81;5050137;28;20215;-43
2023/08/24 00:11:46;;;;;;;9.57;8.48;;;;;;;23.94;71.38;94775.59;5048668;28;20223;-44
2023/08/24 00:14:13;;;;;;;9.48;8.23;;;;;;;23.93;71.44;94781.06;5050199;28;20183;-44
2023/08/24 00:16:40;;;;;;;10.73;9.65;;;;;;;23.89;71.35;94778.09;5049917;28;20187;-45
2023/08/24 00:19:09;;;;;;;11.02;9.07;;;;;;;23.88;71.97;94770.47;5050223;28;20206;-46
2023/08/24 00:21:35;;;;;;;10.77;8.48;;;;;;;23.84;72.25;94771.94;5049528;28;20187;-44
2023/08/24 00:24:02;;;;;;;9.68;8.75;;;;;;;23.79;72.21;94764.72;5049902;28;20248;-43
2023/08/24 00:26:29;;;;;;;9.63;8.40;;;;;;;23.76;72.41;94767.78;5049980;28;20186;-45
2023/08/24 00:28:56;;;;;;;10.10;9.10;;;;;;;23.72;72.74;94759.56;5049279;28;20231;-43
2023/08/24 00:31:23;;;;;;;13.18;8.93;;;;;;;23.68;73.10;94763.63;5049322;28;20583;-44
2023/08/24 00:33:50;;;;;;;10.55;9.50;;;;;;;23.67;73.61;94767.28;5049460;28;20546;-44
2023/08/24 00:36:18;;;;;;;10.07;9.02;;;;;;;23.65;73.86;94771.09;5049516;28;20233;-42
2023/08/24 00:38:50;;;;;;;11.00;9.77;;;;;;;23.63;74.01;94770.50;5049742;28;20249;-42
2023/08/24 00:41:17;;;;;;;12.07;9.52;;;;;;;23.59;74.18;94764.13;5049481;28;20222;-42
2023/08/24 00:43:44;;;;;;;11.55;10.40;;;;;;;23.56;73.90;94767.16;5049238;28;20187;-42
2023/08/24 00:46:11;;;;;;;10.15;9.10;;;;;;;23.53;73.84;94771.81;5049579;28;20187;-42
2023/08/24 00:48:38;;;;;;;9.77;8.55;;;;;;;23.52;73.73;94772.78;5049220;28;20187;-43
2023/08/24 00:51:05;;;;;;;9.23;8.35;;;;;;;23.54;73.15;94778.63;5049128;28;20203;-42
2023/08/24 00:53:34;;;;;;;9.50;8.43;;;;;;;23.56;72.87;94780.19;5049049;28;20678;-44
2023/08/24 00:56:01;;;;;;;13.50;9.15;;;;;;;23.45;72.70;94772.06;5049256;28;20205;-42
2023/08/24 00:58:28;;;;;;;9.48;8.63;;;;;;;23.37;72.91;94761.91;5049278;28;20198;-42
2023/08/24 01:00:57;;;;;;;10.18;9.15;;;;;;;23.44;73.20;94774.88;5049464;28;20191;-42
2023/08/24 01:03:24;;;;;;;11.35;9.23;;;;;;;23.38;73.46;94770.53;5048856;28;20589;-42
2023/08/24 01:05:52;;;;;;;10.30;8.90;;;;;;;23.32;73.47;94771.41;5049205;28;20253;-43
2023/08/24 01:08:19;;;;;;;10.77;9.57;;;;;;;23.33;73.28;94770.38;5049202;28;20198;-44
2023/08/24 01:10:53;;;;;;;12.73;8.55;;;;;;;23.29;73.62;94772.63;5049021;28;20533;-44
2023/08/24 01:13:26;;;;;;;10.02;8.77;;;;;;;23.25;73.99;94763.63;5049060;28;20218;-44
2023/08/24 01:15:59;;;;;;;15.07;9.30;;;;;;;23.23;74.23;94766.47;5049169;28;20253;-42
2023/08/24 01:18:29;;;;;;;10.10;9.10;;;;;;;23.25;74.16;94766.22;5049343;28;20194;-45
2023/08/24 01:20:57;;;;;;;10.55;9.45;;;;;;;23.21;74.49;94755.41;5049260;28;20202;-44
2023/08/24 01:23:37;;;;;;;10.32;9.30;;;;;;;23.20;74.64;94748.59;5050306;28;20311;-44
2023/08/24 01:26:08;;;;;;;9.07;8.27;;;;;;;23.18;74.71;94757.66;5053147;28;20240;-44
2023/08/24 01:28:35;;;;;;;9.85;8.85;;;;;;;23.02;74.74;94744.16;5052356;28;20678;-44
2023/08/24 01:31:04;;;;;;;11.20;9.50;;;;;;;23.04;75.14;94762.97;5053036;28;20248;-43
2023/08/24 01:33:31;;;;;;;10.23;9.13;;;;;;;23.07;75.37;94764.38;5052780;28;20284;-42
2023/08/24 01:35:58;;;;;;;10.05;8.88;;;;;;;22.92;75.43;94740.41;5052651;28;20183;-43
2023/08/24 01:38:25;;;;;;;10.60;9.40;;;;;;;23.07;75.59;94769.59;5052857;28;20195;-41
2023/08/24 01:41:00;;;;;;;10.55;9.45;;;;;;;22.60;75.78;94697.91;5052333;28;20203;-42
2023/08/24 01:43:33;;;;;;;10.80;9.73;;;;;;;23.00;76.34;94766.22;5052471;28;20668;-43
2023/08/24 01:46:03;;;;;;;45.33;41.10;;;;;;;22.98;76.38;94766.47;5052655;28;20222;-42
2023/08/24 01:48:31;;;;;;;23.92;21.63;;;;;;;22.94;75.84;94765.28;5052601;28;20190;-44
2023/08/24 01:50:59;;;;;;;17.10;15.40;;;;;;;23.01;76.22;94780.88;5052270;28;20511;-45
2023/08/24 01:53:27;;;;;;;15.02;13.55;;;;;;;22.98;76.72;94776.88;5052143;28;20318;-42
2023/08/24 01:55:54;;;;;;;11.82;10.63;;;;;;;22.97;76.66;94774.47;5052054;28;20202;-42
2023/08/24 01:58:21;;;;;;;11.35;10.02;;;;;;;22.90;76.86;94768.53;5052619;28;20263;-43
2023/08/24 02:00:49;;;;;;;11.50;10.43;;;;;;;22.92;77.14;94771.72;5052231;28;20202;-44
2023/08/24 02:03:16;;;;;;;12.55;10.52;;;;;;;22.89;77.14;94772.13;5052226;28;20324;-44
2023/08/24 02:05:43;;;;;;;10.77;9.70;;;;;;;22.95;77.72;94773.91;5052060;28;20210;-44
2023/08/24 02:08:09;;;;;;;12.43;9.48;;;;;;;22.91;77.65;94773.53;5052173;28;20195;-42
2023/08/24 02:10:36;;;;;;;15.93;10.48;;;;;;;22.90;77.56;94774.53;5051819;28;20282;-42
2023/08/24 02:13:03;;;;;;;14.52;10.27;;;;;;;22.87;77.72;94771.53;5051900;28;20284;-44
2023/08/24 02:15:30;;;;;;;11.57;10.18;;;;;;;22.85;77.58;94776.16;5051876;28;20248;-43
2023/08/24 02:17:58;;;;;;;13.32;10.73;;;;;;;22.83;77.93;94778.97;5053797;28;20183;-43
2023/08/24 02:20:25;;;;;;;13.48;11.65;;;;;;;22.85;78.79;94778.78;5051616;28;20191;-45
2023/08/24 02:22:51;;;;;;;13.48;10.50;;;;;;;22.84;78.69;94785.78;5051947;28;20195;-43
2023/08/24 02:25:18;;;;;;;12.65;11.05;;;;;;;22.73;79.35;94784.66;5051848;28;20225;-43
2023/08/24 02:27:45;;;;;;;12.55;10.45;;;;;;;22.67;79.44;94788.13;5051421;28;20717;-43
2023/08/24 02:30:13;;;;;;;12.65;11.30;;;;;;;22.62;79.76;94787.91;5051920;28;20198;-43
2023/08/24 02:32:40;;;;;;;13.75;11.80;;;;;;;22.57;79.73;94792.16;5051536;28;20636;-45
2023/08/24 02:35:09;;;;;;;28.63;20.80;;;;;;;22.53;80.11;94789.97;5050816;28;20217;-43
2023/08/24 02:37:36;;;;;;;34.67;26.35;;;;;;;22.49;80.43;94788.78;5051298;28;20198;-43
2023/08/24 02:40:03;;;;;;;41.03;26.08;;;;;;;22.45;80.71;94779.81;5051532;28;20198;-45
2023/08/24 02:42:31;;;;;;;37.78;25.60;;;;;;;21.98;80.74;94706.28;5051258;28;20199;-42
2023/08/24 02:44:58;;;;;;;32.97;24.40;;;;;;;22.38;80.86;94760.00;5051806;28;20190;-43
2023/08/24 02:47:25;;;;;;;32.83;21.83;;;;;;;22.39;80.90;94764.19;5051303;28;20183;-44
2023/08/24 02:49:52;;;;;;;26.67;20.17;;;;;;;22.37;81.39;94761.81;5051392;28;20195;-44
2023/08/24 02:52:20;;;;;;;29.88;19.35;;;;;;;22.34;81.32;94757.00;5051084;28;20317;-45
2023/08/24 02:54:47;;;;;;;23.35;16.90;;;;;;;22.31;81.49;94754.03;5051064;28;20213;-44
2023/08/24 02:57:14;;;;;;;22.08;16.80;;;;;;;22.29;81.40;94755.03;5051039;28;20666;-42
2023/08/24 02:59:43;;;;;;;18.55;14.43;;;;;;;22.31;81.31;94752.22;5051287;28;20760;-44
2023/08/24 03:02:10;;;;;;;19.77;13.40;;;;;;;22.32;81.25;94750.41;5051462;28;20551;-44
2023/08/24 03:04:37;;;;;;;21.35;17.73;;;;;;;22.36;81.21;94756.78;5050929;28;20191;-42
2023/08/24 03:07:03;;;;;;;24.27;17.30;;;;;;;22.32;81.93;94743.38;5051197;28;20202;-45
2023/08/24 03:09:32;;;;;;;21.85;17.05;;;;;;;22.35;81.90;94760.41;5050981;28;20253;-44
2023/08/24 03:11:58;;;;;;;24.77;17.88;;;;;;;22.30;81.75;94763.66;5050974;28;20194;-44
2023/08/24 03:14:25;;;;;;;22.75;18.25;;;;;;;22.32;82.17;94772.03;5050761;28;20191;-44
2023/08/24 03:16:52;;;;;;;31.73;18.85;;;;;;;22.29;81.98;94775.09;5050924;28;20355;-43
2023/08/24 03:19:19;;;;;;;26.55;18.98;;;;;;;22.27;82.21;94777.88;5050791;28;20184;-45
2023/08/24 03:21:45;;;;;;;24.33;18.17;;;;;;;22.24;81.88;94780.13;5050964;28;20646;-44
2023/08/24 03:24:12;;;;;;;21.98;17.20;;;;;;;22.22;82.11;94779.50;5050579;28;20199;-44
2023/08/24 03:26:40;;;;;;;21.83;16.52;;;;;;;22.21;82.07;94785.75;5050975;28;20183;-43
2023/08/24 03:29:07;;;;;;;23.58;17.58;;;;;;;22.20;82.24;94800.56;5050458;28;20307;-45
2023/08/24 03:31:34;;;;;;;22.88;17.17;;;;;;;22.20;82.40;94797.19;5050734;28;20562;-43
2023/08/24 03:34:01;;;;;;;24.30;19.13;;;;;;;22.17;82.33;94800.97;5050470;28;20245;-43
2023/08/24 03:36:28;;;;;;;26.60;20.83;;;;;;;22.17;82.56;94797.59;5050583;28;20187;-44
2023/08/24 03:38:54;;;;;;;30.58;22.25;;;;;;;22.16;82.47;94803.81;5050313;28;20250;-43
2023/08/24 03:41:23;;;;;;;32.25;23.35;;;;;;;22.09;83.04;94797.78;5050514;28;20206;-44
2023/08/24 03:43:51;;;;;;;27.77;20.95;;;;;;;22.10;83.06;94805.38;5050294;28;20313;-43
2023/08/24 03:46:18;;;;;;;25.67;18.30;;;;;;;22.09;83.34;94814.19;5050206;28;20190;-43
2023/08/24 03:48:45;;;;;;;25.45;19.02;;;;;;;22.07;83.26;94812.81;5050331;28;20642;-44
2023/08/24 03:51:11;;;;;;;31.48;19.73;;;;;;;21.98;83.33;94796.63;5050339;28;20207;-42
2023/08/24 03:53:38;;;;;;;25.33;19.92;;;;;;;22.11;83.44;94822.63;5050289;28;20219;-44
2023/08/24 03:56:05;;;;;;;26.27;17.90;;;;;;;22.11;83.26;94822.63;5050257;28;20788;-44
2023/08/24 03:58:32;;;;;;;25.92;19.08;;;;;;;22.10;83.25;94817.59;5049991;28;20198;-44
2023/08/24 04:01:00;;;;;;;29.65;20.52;;;;;;;22.11;83.47;94816.63;5049906;28;20202;-43
2023/08/24 04:03:27;;;;;;;28.45;19.80;;;;;;;22.08;83.49;94810.00;5050044;28;20195;-45
2023/08/24 04:05:54;;;;;;;26.00;20.10;;;;;;;22.04;83.88;94814.81;5049943;28;20193;-44
2023/08/24 04:08:20;;;;;;;29.00;20.50;;;;;;;22.09;83.86;94810.81;5049951;28;20195;-43
2023/08/24 04:10:47;;;;;;;28.05;19.80;;;;;;;22.05;84.03;94813.00;5051280;28;20249;-42
2023/08/24 04:13:14;;;;;;;30.45;21.10;;;;;;;22.08;83.80;94812.63;5049821;28;20241;-43
2023/08/24 04:15:41;;;;;;;35.10;21.92;;;;;;;22.09;83.77;94813.41;5050017;28;20194;-44
2023/08/24 04:18:09;;;;;;;24.95;18.95;;;;;;;22.03;84.44;94809.81;5049901;28;20623;-42
2023/08/24 04:20:35;;;;;;;32.20;20.20;;;;;;;22.12;84.28;94815.59;5050019;28;20183;-43
2023/08/24 04:23:03;;;;;;;32.40;21.00;;;;;;;22.12;84.28;94811.22;5049536;28;20191;-42
2023/08/24 04:25:30;;;;;;;33.60;21.65;;;;;;;22.12;84.56;94803.41;5049928;28;20194;-41
2023/08/24 04:27:57;;;;;;;36.10;23.17;;;;;;;22.16;84.51;94809.00;5049187;28;20660;-41
2023/08/24 04:30:24;;;;;;;35.58;23.60;;;;;;;22.19;84.53;94812.00;5049943;28;20571;-43
2023/08/24 04:32:50;;;;;;;37.03;23.50;;;;;;;22.26;84.24;94817.97;5049428;28;20264;-42
2023/08/24 04:35:19;;;;;;;37.75;21.95;;;;;;;22.32;84.25;94818.94;5049509;28;20223;-45
2023/08/24 04:37:46;;;;;;;31.77;24.10;;;;;;;22.36;83.72;94814.91;5049615;28;20195;-44
2023/08/24 04:40:12;;;;;;;30.60;22.63;;;;;;;22.37;83.16;94815.75;5049708;28;20619;-43
2023/08/24 04:42:39;;;;;;;29.77;20.20;;;;;;;22.38;82.67;94819.94;5049028;28;20202;-43
2023/08/24 04:45:07;;;;;;;32.88;19.92;;;;;;;22.38;82.52;94818.13;5049406;28;20198;-42
2023/08/24 04:47:34;;;;;;;31.58;20.00;;;;;;;22.39;82.52;94818.94;5049276;28;20678;-44
2023/08/24 04:50:01;;;;;;;27.50;19.70;;;;;;;22.45;82.33;94823.31;5049240;28;20639;-43
2023/08/24 04:52:29;;;;;;;27.63;19.88;;;;;;;22.43;82.35;94817.50;5049502;28;20274;-44
2023/08/24 04:54:56;;;;;;;31.15;19.33;;;;;;;22.47;82.68;94814.28;5049079;28;20237;-42
2023/08/24 04:57:23;;;;;;;29.70;20.35;;;;;;;22.54;82.32;94824.69;5049162;28;20256;-44
2023/08/24 04:59:49;;;;;;;26.30;18.38;;;;;;;22.59;81.75;94824.06;5048650;28;20244;-45
2023/08/24 05:02:16;;;;;;;24.38;18.52;;;;;;;22.65;81.15;94818.78;5049262;28;20198;-45
2023/08/24 05:04:43;;;;;;;28.80;18.50;;;;;;;22.24;81.32;94743.66;5048856;28;20195;-42
2023/08/24 05:07:10;;;;;;;27.20;18.40;;;;;;;22.82;81.34;94819.09;5049516;28;20183;-44
2023/08/24 05:09:38;;;;;;;26.65;18.90;;;;;;;22.89;80.78;94813.84;5049209;28;20191;-45
2023/08/24 05:12:05;;;;;;;33.28;19.48;;;;;;;22.98;80.89;94816.00;5049071;28;20643;-44
2023/08/24 05:14:33;;;;;;;29.80;18.58;;;;;;;23.08;80.15;94827.78;5048896;28;20237;-45
2023/08/24 05:17:00;;;;;;;30.40;20.75;;;;;;;23.03;79.93;94815.38;5049064;28;20198;-44
2023/08/24 05:19:27;;;;;;;27.40;19.92;;;;;;;23.16;79.38;94825.72;5049520;28;20187;-45
2023/08/24 05:21:54;;;;;;;29.10;20.13;;;;;;;23.19;79.49;94840.97;5049054;28;20538;-44
2023/08/24 05:24:21;;;;;;;35.85;21.67;;;;;;;23.25;79.03;94832.25;5049049;28;20194;-43
2023/08/24 05:26:49;;;;;;;39.50;25.30;;;;;;;23.36;78.57;94830.78;5048515;28;20245;-44
2023/08/24 05:29:16;;;;;;;34.88;24.80;;;;;;;23.41;77.89;94832.75;5049132;28;20297;-45
2023/08/24 05:31:42;;;;;;;32.90;23.77;;;;;;;23.50;77.59;94847.94;5048746;28;20769;-46
2023/08/24 05:34:09;;;;;;;39.28;22.88;;;;;;;23.60;75.90;94851.88;5049311;28;20230;-43
2023/08/24 05:36:36;;;;;;;30.73;21.02;;;;;;;23.51;76.15;94846.91;5048765;28;20183;-43
2023/08/24 05:39:03;;;;;;;31.67;20.20;;;;;;;23.64;76.16;94853.03;5049127;28;20195;-43
2023/08/24 05:41:29;;;;;;;35.17;21.73;;;;;;;23.73;75.17;94851.78;5048708;28;20191;-44
2023/08/24 05:43:58;;;;;;;33.55;20.45;;;;;;;23.84;75.36;94866.75;5048941;28;20198;-43
2023/08/24 05:46:25;;;;;;;28.45;20.05;;;;;;;23.86;74.92;94851.66;5048674;28;20281;-44
2023/08/24 05:48:51;;;;;;;31.27;19.48;;;;;;;24.07;74.26;94867.94;5048880;28;20632;-44
2023/08/24 05:51:18;;;;;;;31.48;19.40;;;;;;;24.17;73.83;94861.16;5048409;28;20187;-43
2023/08/24 05:53:45;;;;;;;28.95;19.55;;;;;;;24.28;72.86;94855.22;5048703;28;20582;-43
2023/08/24 05:56:12;;;;;;;33.15;21.60;;;;;;;24.42;72.94;94862.94;5048946;28;20527;-43
2023/08/24 05:58:38;;;;;;;33.90;21.00;;;;;;;24.51;72.42;94878.09;5048384;28;20649;-45
2023/08/24 06:01:07;;;;;;;35.45;22.27;;;;;;;24.64;72.20;94873.72;5048584;28;20627;-44
2023/08/24 06:03:35;;;;;;;32.38;22.95;;;;;;;24.78;71.65;94868.13;5049450;28;20758;-44
2023/08/24 06:06:03;;;;;;;32.00;20.63;;;;;;;25.00;70.79;94854.56;5048670;28;20191;-44
2023/08/24 06:08:30;;;;;;;26.17;18.48;;;;;;;25.19;69.92;94866.56;5048625;28;20235;-44
2023/08/24 06:10:57;;;;;;;24.90;17.98;;;;;;;25.32;68.95;94867.41;5050846;28;20273;-44
2023/08/24 06:13:24;;;;;;;30.52;18.52;;;;;;;25.45;67.97;94873.22;5052040;28;20218;-45
2023/08/24 06:15:50;;;;;;;20.15;16.42;;;;;;;25.63;68.01;94866.28;5052574;28;20198;-46
2023/08/24 06:18:19;;;;;;;25.55;17.58;;;;;;;26.06;66.78;94857.31;5052076;28;20191;-45
2023/08/24 06:20:46;;;;;;;26.35;17.85;;;;;;;26.71;64.77;94868.34;5052132;28;20252;-45
2023/08/24 06:23:13;;;;;;;24.90;17.85;;;;;;;27.37;62.63;94873.19;5051929;28;20650;-44
2023/08/24 06:25:40;;;;;;;22.08;16.42;;;;;;;27.76;60.82;94871.47;5052282;28;20187;-43
2023/08/24 06:28:08;;;;;;;31.20;17.17;;;;;;;28.09;59.76;94859.31;5051726;28;20226;-44
2023/08/24 06:30:38;;;;;;;21.55;15.80;;;;;;;28.42;59.21;94867.16;5051896;28;20278;-46
2023/08/24 06:33:06;;;;;;;20.38;15.18;;;;;;;28.65;58.41;94874.00;5051779;28;20211;-46
2023/08/24 06:35:34;;;;;;;17.75;14.13;;;;;;;28.81;57.43;94872.34;5052224;28;20206;-45
2023/08/24 06:38:01;;;;;;;21.88;13.85;;;;;;;28.90;56.65;94865.56;5051837;28;20187;-45
2023/08/24 06:40:30;;;;;;;19.02;12.35;;;;;;;29.09;55.35;94870.53;5051746;28;20187;-43
2023/08/24 06:42:57;;;;;;;17.30;11.52;;;;;;;29.20;55.24;94867.75;5051751;28;20663;-44
2023/08/24 06:45:23;;;;;;;20.13;11.80;;;;;;;29.30;54.48;94868.88;5051551;28;20187;-46
2023/08/24 06:47:51;;;;;;;13.50;10.82;;;;;;;29.43;54.35;94869.25;5051740;28;20635;-43
2023/08/24 06:50:19;;;;;;;13.02;11.60;;;;;;;29.67;53.33;94869.72;5051635;28;20253;-44
2023/08/24 06:52:47;;;;;;;14.82;11.48;;;;;;;29.58;53.20;94870.44;5051721;28;20270;-44
2023/08/24 06:55:14;;;;;;;17.85;10.50;;;;;;;29.55;53.50;94866.44;5051406;28;20306;-43
2023/08/24 06:57:40;;;;;;;20.40;13.27;;;;;;;29.76;53.03;94877.19;5051532;28;20202;-44
2023/08/24 07:00:09;;;;;;;14.30;12.48;;;;;;;29.75;53.10;94871.13;5051289;28;20195;-43
2023/08/24 07:02:36;;;;;;;16.60;11.98;;;;;;;29.78;53.63;94867.94;5051357;28;20191;-46
2023/08/24 07:05:05;;;;;;;17.52;10.13;;;;;;;30.09;53.05;94865.50;5051118;28;20654;-44
2023/08/24 07:07:32;;;;;;;11.85;10.63;;;;;;;30.37;51.95;94859.88;5051340;28;20697;-43
2023/08/24 07:10:00;;;;;;;11.82;10.63;;;;;;;30.58;51.74;94852.84;5050893;28;20662;-43
2023/08/24 07:12:27;;;;;;;12.07;10.35;;;;;;;31.04;50.75;94858.25;5051080;28;20206;-44
2023/08/24 07:14:54;;;;;;;11.95;10.48;;;;;;;31.31;49.38;94852.78;5051170;28;20218;-44
2023/08/24 07:17:21;;;;;;;15.07;10.18;;;;;;;31.31;49.86;94851.97;5051400;28;20210;-44
2023/08/24 07:19:47;;;;;;;15.68;10.52;;;;;;;31.32;49.80;94850.91;5051167;28;20194;-44
2023/08/24 07:22:14;;;;;;;11.80;9.95;;;;;;;31.17;49.67;94849.00;5050368;28;20558;-44
2023/08/24 07:24:41;;;;;;;12.73;10.88;;;;;;;30.96;49.88;94842.94;5051142;28;20202;-44
2023/08/24 07:27:09;;;;;;;11.32;10.23;;;;;;;30.74;50.11;94848.41;5050691;28;20300;-45
2023/08/24 07:29:36;;;;;;;12.65;9.75;;;;;;;30.64;51.11;94848.34;5050603;28;20195;-47
2023/08/24 07:32:04;;;;;;;13.10;11.80;;;;;;;30.62;51.28;94851.25;5050515;28;20191;-44
2023/08/24 07:34:30;;;;;;;12.85;11.55;;;;;;;30.71;50.29;94844.41;5050716;28;20682;-43
2023/08/24 07:36:57;;;;;;;15.80;12.75;;;;;;;30.74;50.23;94845.75;5050775;28;20190;-44
2023/08/24 07:39:24;;;;;;;15.10;12.13;;;;;;;30.86;49.90;94848.19;5051040;28;20187;-44
2023/08/24 07:41:51;;;;;;;16.75;10.98;;;;;;;31.02;49.67;94849.81;5050445;28;20577;-44
2023/08/24 07:44:19;;;;;;;14.55;12.00;;;;;;;31.34;48.52;94846.16;5050736;28;20198;-49
2023/08/24 07:46:46;;;;;;;12.75;10.90;;;;;;;31.42;47.30;94819.97;5050382;28;20182;-43
2023/08/24 07:49:13;;;;;;;11.15;8.88;;;;;;;31.75;45.90;94846.16;5050587;28;20669;-43
2023/08/24 07:51:39;;;;;;;13.63;10.63;;;;;;;31.81;45.16;94845.06;5050950;28;20213;-45
2023/08/24 07:54:07;;;;;;;11.27;10.27;;;;;;;31.92;44.62;94841.38;5050408;28;20226;-44
2023/08/24 07:56:34;;;;;;;10.27;9.38;;;;;;;31.95;44.75;94848.75;5050278;28;20575;-44
2023/08/24 07:59:01;;;;;;;12.35;10.45;;;;;;;32.12;44.43;94843.94;5050011;28;20633;-44
2023/08/24 08:01:30;;;;;;;13.65;10.18;;;;;;;32.12;44.21;94843.94;5050357;28;20245;-44
2023/08/24 08:03:57;;;;;;;13.85;10.27;;;;;;;32.25;44.45;94832.00;5050545;28;20193;-44
2023/08/24 08:06:24;;;;;;;18.02;11.88;;;;;;;32.62;44.08;94839.56;5050415;28;20195;-44
2023/08/24 08:08:51;;;;;;;20.67;10.48;;;;;;;32.88;43.05;94850.03;5050309;28;20217;-43
2023/08/24 08:11:18;;;;;;;16.65;10.48;;;;;;;32.80;43.24;94847.94;5050349;28;20191;-42
2023/08/24 08:13:45;;;;;;;15.45;10.85;;;;;;;32.88;43.36;94840.22;5049787;28;20222;-43
2023/08/24 08:16:12;;;;;;;11.88;10.40;;;;;;;33.12;42.56;94847.53;5050262;28;20856;-44
2023/08/24 08:18:40;;;;;;;12.70;10.05;;;;;;;33.18;42.11;94846.41;5049847;28;20183;-43
2023/08/24 08:21:11;;;;;;;15.90;10.70;;;;;;;33.37;42.15;94841.22;5050180;28;20268;-44
2023/08/24 08:23:38;;;;;;;19.23;10.48;;;;;;;33.47;41.80;94846.50;5049717;28;20221;-45
2023/08/24 08:26:05;;;;;;;13.30;10.70;;;;;;;33.42;41.46;94841.19;5049912;28;20201;-43
2023/08/24 08:28:34;;;;;;;17.02;10.68;;;;;;;33.33;41.81;94841.00;5049464;28;20231;-44
2023/08/24 08:31:02;;;;;;;12.82;10.88;;;;;;;33.26;42.31;94832.59;5050017;28;20235;-45
2023/08/24 08:33:28;;;;;;;11.27;10.02;;;;;;;33.24;42.00;94840.00;5049107;28;20191;-44
2023/08/24 08:35:57;;;;;;;13.13;10.70;;;;;;;33.13;41.38;94817.31;5049522;28;20194;-44
2023/08/24 08:38:25;;;;;;;14.95;10.32;;;;;;;33.28;41.62;94832.28;5049709;28;20190;-44
2023/08/24 08:40:54;;;;;;;14.65;10.07;;;;;;;33.37;41.38;94834.06;5049310;28;20724;-45
2023/08/24 08:43:22;;;;;;;17.75;10.18;;;;;;;33.49;41.32;94833.75;5049361;28;20214;-45
2023/08/24 08:45:50;;;;;;;12.45;10.35;;;;;;;33.66;40.76;94828.03;5049532;28;20570;-45
2023/08/24 08:48:17;;;;;;;12.13;9.40;;;;;;;33.80;40.10;94817.53;5049541;28;20558;-46
2023/08/24 08:50:44;;;;;;;11.02;9.75;;;;;;;34.07;40.10;94814.34;5049349;28;20252;-43
2023/08/24 08:53:12;;;;;;;12.18;10.30;;;;;;;34.31;39.61;94815.16;5049485;28;20228;-46
2023/08/24 08:55:40;;;;;;;11.32;10.23;;;;;;;34.50;39.28;94809.91;5049248;28;20253;-43
2023/08/24 08:58:07;;;;;;;11.30;9.90;;;;;;;34.65;39.19;94811.56;5049173;28;20743;-44
2023/08/24 09:00:34;;;;;;;13.80;9.52;;;;;;;34.79;38.76;94812.44;5049365;28;20294;-44
2023/08/24 09:03:02;;;;;;;17.35;10.15;;;;;;;34.89;38.59;94796.34;5049468;28;20245;-43
2023/08/24 09:05:30;;;;;;;11.05;9.95;;;;;;;35.02;38.29;94804.69;5049100;28;20673;-43
2023/08/24 09:07:59;;;;;;;10.90;9.38;;;;;;;34.95;38.46;94794.41;5049354;28;20199;-46
2023/08/24 09:10:27;;;;;;;13.05;9.77;;;;;;;35.02;38.60;94799.38;5049117;28;20278;-44
2023/08/24 09:12:54;;;;;;;11.02;9.77;;;;;;;35.13;38.37;94793.59;5049217;28;20199;-43
2023/08/24 09:15:27;;;;;;;12.25;9.80;;;;;;;35.22;38.56;94790.28;5049345;28;20218;-44
2023/08/24 09:17:55;;;;;;;13.43;9.50;;;;;;;35.32;38.21;94787.44;5049668;28;20186;-46
2023/08/24 09:20:21;;;;;;;11.57;9.38;;;;;;;35.40;38.05;94782.25;5049240;28;20645;-43
2023/08/24 09:22:48;;;;;;;12.77;10.43;;;;;;;35.47;38.00;94773.94;5049558;28;20187;-45
2023/08/24 09:25:15;;;;;;;12.93;9.73;;;;;;;35.40;38.28;94768.16;5049087;28;20194;-45
2023/08/24 09:27:43;;;;;;;12.30;10.48;;;;;;;35.40;37.88;94770.84;5048883;28;20229;-45
2023/08/24 09:30:11;;;;;;;12.68;10.80;;;;;;;35.29;37.88;94772.88;5049089;28;20202;-45
2023/08/24 09:32:38;;;;;;;12.18;10.88;;;;;;;35.14;37.83;94747.31;5048789;28;20222;-45
2023/08/24 09:35:08;;;;;;;12.77;11.48;;;;;;;35.24;37.97;94767.66;5048970;28;20264;-44
2023/08/24 09:37:36;;;;;;;11.98;10.80;;;;;;;35.20;38.02;94758.69;5048976;28;20190;-45
2023/08/24 09:40:07;;;;;;;11.68;10.52;;;;;;;35.21;38.27;94762.13;5049093;28;20194;-45
2023/08/24 09:42:38;;;;;;;15.40;11.73;;;;;;;35.14;37.86;94742.00;5049578;28;20734;-43
2023/08/24 09:45:09;;;;;;;16.13;11.55;;;;;;;35.27;37.97;94747.66;5051947;28;20249;-45
2023/08/24 09:47:36;;;;;;;12.25;11.10;;;;;;;35.31;37.76;94751.31;5052486;28;20277;-44
2023/08/24 09:50:03;;;;;;;12.15;10.95;;;;;;;35.31;37.61;94746.00;5052972;28;20211;-45
2023/08/24 09:52:33;;;;;;;13.05;11.73;;;;;;;35.46;38.03;94740.41;5052376;28;20199;-44
2023/08/24 09:55:05;;;;;;;10.82;9.93;;;;;;;35.56;37.67;94740.25;5052559;28;20685;-46
2023/08/24 09:57:37;;;;;;;11.57;10.35;;;;;;;35.47;37.18;94734.03;5052808;28;20214;-43
2023/08/24 10:00:11;;;;;;;11.65;10.55;;;;;;;35.51;37.20;94740.34;5052664;28;20286;-44
2023/08/24 10:02:41;;;;;;;11.52;10.32;;;;;;;35.68;37.17;94737.91;5052494;28;20195;-44
2023/08/24 10:05:11;;;;;;;10.27;9.30;;;;;;;35.74;36.88;94733.25;5052495;28;20293;-44
2023/08/24 10:07:39;;;;;;;9.77;8.77;;;;;;;35.79;35.69;94730.50;5052366;28;20179;-45
2023/08/24 10:10:13;;;;;;;13.05;9.27;;;;;;;35.83;35.85;94728.03;5052852;28;20183;-45
2023/08/24 10:12:45;;;;;;;10.75;9.30;;;;;;;35.95;35.82;94723.00;5052165;28;20195;-44
2023/08/24 10:15:13;;;;;;;10.65;9.52;;;;;;;36.04;35.80;94733.78;5052204;28;20226;-44
2023/08/24 10:17:41;;;;;;;10.60;9.48;;;;;;;36.10;35.60;94711.31;5052190;28;20183;-44
2023/08/24 10:20:10;;;;;;;10.80;9.65;;;;;;;36.23;35.82;94729.13;5052513;28;20701;-44
2023/08/24 10:22:39;;;;;;;10.80;9.70;;;;;;;36.33;35.20;94720.91;5052132;28;20260;-43
2023/08/24 10:25:08;;;;;;;11.15;9.82;;;;;;;36.44;34.94;94718.84;5052163;28;20639;-45
2023/08/24 10:27:35;;;;;;;9.93;9.02;;;;;;;36.57;34.71;94723.34;5051509;28;20269;-47
2023/08/24 10:30:03;;;;;;;12.40;9.07;;;;;;;36.46;34.52;94729.22;5051946;28;20206;-44
2023/08/24 10:32:32;;;;;;;10.07;8.77;;;;;;;36.33;34.54;94723.56;5051591;28;20191;-45
2023/08/24 10:34:59;;;;;;;9.93;8.05;;;;;;;36.18;34.19;94719.38;5051962;28;20249;-44
2023/08/24 10:37:27;;;;;;;9.75;8.85;;;;;;;36.14;34.29;94709.59;5051484;28;20202;-45
2023/08/24 10:39:54;;;;;;;9.63;8.82;;;;;;;35.82;35.10;94703.28;5052163;28;20282;-45
2023/08/24 10:42:21;;;;;;;10.05;9.20;;;;;;;35.74;35.24;94705.88;5052100;28;20210;-43
2023/08/24 10:44:49;;;;;;;10.38;9.48;;;;;;;35.69;35.14;94715.53;5051748;28;20654;-44
2023/08/24 10:47:18;;;;;;;11.63;9.18;;;;;;;35.58;35.34;94710.69;5051772;28;20599;-44
2023/08/24 10:49:59;;;;;;;10.45;8.93;;;;;;;35.45;35.53;94706.91;5051401;28;20195;-44
2023/08/24 10:52:27;;;;;;;10.30;8.85;;;;;;;35.29;35.25;94708.28;5051488;28;20214;-43
2023/08/24 10:54:55;;;;;;;11.30;8.68;;;;;;;35.08;34.99;94708.63;5051586;28;20631;-44
2023/08/24 10:57:24;;;;;;;9.73;8.10;;;;;;;34.87;35.29;94715.31;5050630;28;20727;-44
2023/08/24 11:00:05;;;;;;;8.82;8.13;;;;;;;34.60;35.94;94705.38;5051202;28;20202;-45
2023/08/24 11:02:41;;;;;;;13.07;9.50;;;;;;;34.24;38.45;94716.44;5051288;28;20188;-43
2023/08/24 11:05:17;;;;;;;18.48;10.10;;;;;;;33.85;40.65;94706.84;5051376;28;20191;-45
2023/08/24 11:07:55;;;;;;;15.18;10.57;;;;;;;33.58;41.34;94698.66;5051237;28;20195;-44
2023/08/24 11:10:22;;;;;;;12.25;9.40;;;;;;;33.23;42.20;94695.28;5051521;28;20209;-44
2023/08/24 11:13:09;;;;;;;17.48;10.07;;;;;;;33.03;41.64;94703.41;5051113;28;20202;-45
2023/08/24 11:15:39;;;;;;;12.93;9.50;;;;;;;32.91;40.35;94709.06;5051134;28;20704;-43
2023/08/24 11:18:13;;;;;;;10.48;8.43;;;;;;;32.74;40.05;94708.66;5051426;28;20191;-43
2023/08/24 11:20:44;;;;;;;9.10;7.78;;;;;;;32.61;40.01;94704.78;5051172;28;20195;-45
2023/08/24 11:23:11;;;;;;;12.50;7.82;;;;;;;32.52;39.79;94704.56;5051097;28;20225;-45